sensor_id;sensor_type;location;lat;lon;timestamp;pressure;altitude;pressure_sealevel;temperature;humidity
14293;BME280;62290;59.420;17.842;2024-03-23T00:53:58;99163.09;;;23.44;23.82
14293;BME280;62290;59.420;17.842;2024-03-23T00:56:26;99184.59;;;23.52;23.81
14293;BME280;62290;59.420;17.842;2024-03-23T00:58:52;99175.53;;;23.53;23.68
14293;BME280;62290;59.420;17.842;2024-03-23T01:01:18;99168.44;;;23.52;23.55
14293;BME280;62290;59.420;17.842;2024-03-23T01:03:44;99175.53;;;23.53;23.71
14293;BME280;62290;59.420;17.842;2024-03-23T01:06:11;99166.78;;;23.51;23.62
14293;BME280;62290;59.420;17.842;2024-03-23T01:08:37;99165.63;;;23.54;23.64
14293;BME280;62290;59.420;17.842;2024-03-23T01:11:06;99171.84;;;23.54;23.54
14293;BME280;62290;59.420;17.842;2024-03-23T01:13:32;99167.13;;;23.48;23.41
14293;BME280;62290;59.420;17.842;2024-03-23T01:15:59;99166.78;;;23.51;23.28
14293;BME280;62290;59.420;17.842;2024-03-23T01:18:25;99175.84;;;23.50;23.52
14293;BME280;62290;59.420;17.842;2024-03-23T01:20:53;99174.16;;;23.49;23.32
14293;BME280;62290;59.420;17.842;2024-03-23T01:23:19;99174.34;;;23.48;23.31
14293;BME280;62290;59.420;17.842;2024-03-23T01:25:52;99161.91;;;23.47;23.32
14293;BME280;62290;59.420;17.842;2024-03-23T01:28:19;99176.38;;;23.46;23.38
14293;BME280;62290;59.420;17.842;2024-03-23T01:30:46;99166.94;;;23.42;23.36
14293;BME280;62290;59.420;17.842;2024-03-23T01:33:13;99166.13;;;23.41;23.35
14293;BME280;62290;59.420;17.842;2024-03-23T01:35:40;99168.13;;;23.39;23.35
14293;BME280;62290;59.420;17.842;2024-03-23T01:38:06;99178.88;;;23.39;23.27
14293;BME280;62290;59.420;17.842;2024-03-23T01:40:33;99160.72;;;23.33;23.10
14293;BME280;62290;59.420;17.842;2024-03-23T01:43:04;99171.00;;;23.38;23.31
14293;BME280;62290;59.420;17.842;2024-03-23T01:45:32;99175.69;;;23.35;23.20
14293;BME280;62290;59.420;17.842;2024-03-23T01:47:59;99173.13;;;23.34;23.19
14293;BME280;62290;59.420;17.842;2024-03-23T01:50:26;99166.91;;;23.33;23.19
14293;BME280;62290;59.420;17.842;2024-03-23T01:52:53;99167.09;;;23.32;23.29
14293;BME280;62290;59.420;17.842;2024-03-23T01:55:20;99164.75;;;23.29;23.21
14293;BME280;62290;59.420;17.842;2024-03-23T01:57:46;99177.00;;;23.31;23.21
14293;BME280;62290;59.420;17.842;2024-03-23T02:00:13;99170.63;;;23.32;23.14
14293;BME280;62290;59.420;17.842;2024-03-23T02:02:45;99176.69;;;23.34;23.17
14293;BME280;62290;59.420;17.842;2024-03-23T02:05:12;99168.78;;;23.33;23.11
14293;BME280;62290;59.420;17.842;2024-03-23T02:07:39;99150.97;;;23.24;23.12
14293;BME280;62290;59.420;17.842;2024-03-23T02:10:06;99169.59;;;23.33;23.04
14293;BME280;62290;59.420;17.842;2024-03-23T02:12:32;99157.00;;;23.26;23.06
14293;BME280;62290;59.420;17.842;2024-03-23T02:14:59;99165.59;;;23.29;23.07
14293;BME280;62290;59.420;17.842;2024-03-23T02:17:26;99162.56;;;23.32;22.96
14293;BME280;62290;59.420;17.842;2024-03-23T02:19:54;99166.09;;;23.33;22.91
14293;BME280;62290;59.420;17.842;2024-03-23T02:22:20;99162.56;;;23.32;22.90
14293;BME280;62290;59.420;17.842;2024-03-23T02:24:48;99158.84;;;23.33;22.86
14293;BME280;62290;59.420;17.842;2024-03-23T02:27:14;99160.72;;;23.33;22.83
14293;BME280;62290;59.420;17.842;2024-03-23T02:29:41;99160.38;;;23.36;22.92
14293;BME280;62290;59.420;17.842;2024-03-23T02:32:07;99171.13;;;23.36;22.82
14293;BME280;62290;59.420;17.842;2024-03-23T02:34:35;99162.94;;;23.38;22.74
14293;BME280;62290;59.420;17.842;2024-03-23T02:37:01;99151.81;;;23.32;22.85
14293;BME280;62290;59.420;17.842;2024-03-23T02:39:28;99166.47;;;23.38;22.80
14293;BME280;62290;59.420;17.842;2024-03-23T02:41:56;99164.63;;;23.39;22.69
14293;BME280;62290;59.420;17.842;2024-03-23T02:44:23;99166.28;;;23.40;22.63
14293;BME280;62290;59.420;17.842;2024-03-23T02:46:49;99162.09;;;23.37;22.70
14293;BME280;62290;59.420;17.842;2024-03-23T02:49:16;99169.16;;;23.38;22.63
14293;BME280;62290;59.420;17.842;2024-03-23T02:51:42;99165.44;;;23.39;22.69
14293;BME280;62290;59.420;17.842;2024-03-23T02:54:10;99156.56;;;23.39;22.53
14293;BME280;62290;59.420;17.842;2024-03-23T02:56:36;99162.75;;;23.39;22.88
14293;BME280;62290;59.420;17.842;2024-03-23T02:59:05;99169.81;;;23.40;22.62
14293;BME280;62290;59.420;17.842;2024-03-23T03:01:34;99170.66;;;23.41;22.61
14293;BME280;62290;59.420;17.842;2024-03-23T03:04:01;99168.81;;;23.41;22.65
14293;BME280;62290;59.420;17.842;2024-03-23T03:06:27;99171.50;;;23.41;22.55
14293;BME280;62290;59.420;17.842;2024-03-23T03:08:54;99169.50;;;23.43;22.64
14293;BME280;62290;59.420;17.842;2024-03-23T03:11:20;99163.25;;;23.43;22.47
14293;BME280;62290;59.420;17.842;2024-03-23T03:13:50;99161.41;;;23.43;22.57
14293;BME280;62290;59.420;17.842;2024-03-23T03:16:17;99163.78;;;23.46;22.48
14293;BME280;62290;59.420;17.842;2024-03-23T03:18:44;99162.75;;;23.47;22.44
14293;BME280;62290;59.420;17.842;2024-03-23T03:21:12;99155.53;;;23.40;22.49
14293;BME280;62290;59.420;17.842;2024-03-23T03:23:39;99162.75;;;23.47;22.46
14293;BME280;62290;59.420;17.842;2024-03-23T03:26:06;99162.59;;;23.49;22.68
14293;BME280;62290;59.420;17.842;2024-03-23T03:28:33;99147.66;;;23.46;22.50
14293;BME280;62290;59.420;17.842;2024-03-23T03:31:00;99161.41;;;23.51;22.51
14293;BME280;62290;59.420;17.842;2024-03-23T03:33:29;99164.75;;;23.53;22.42
14293;BME280;62290;59.420;17.842;2024-03-23T03:35:55;99165.44;;;23.55;22.40
14293;BME280;62290;59.420;17.842;2024-03-23T03:38:22;99167.97;;;23.57;22.36
14293;BME280;62290;59.420;17.842;2024-03-23T03:40:48;99167.97;;;23.57;22.36
14293;BME280;62290;59.420;17.842;2024-03-23T03:43:15;99172.50;;;23.56;22.37
14293;BME280;62290;59.420;17.842;2024-03-23T03:45:41;99166.94;;;23.58;22.36
14293;BME280;62290;59.420;17.842;2024-03-23T03:48:08;99176.69;;;23.59;22.40
14293;BME280;62290;59.420;17.842;2024-03-23T03:50:35;99170.47;;;23.58;22.38
14293;BME280;62290;59.420;17.842;2024-03-23T03:53:02;99169.63;;;23.58;22.38
14293;BME280;62290;59.420;17.842;2024-03-23T03:55:28;99174.16;;;23.57;22.39
14293;BME280;62290;59.420;17.842;2024-03-23T03:57:55;99168.63;;;23.59;22.50
14293;BME280;62290;59.420;17.842;2024-03-23T04:00:24;99168.63;;;23.59;22.53
14293;BME280;62290;59.420;17.842;2024-03-23T04:02:51;99172.97;;;23.60;22.41
14293;BME280;62290;59.420;17.842;2024-03-23T04:05:17;99166.59;;;23.61;22.32
14293;BME280;62290;59.420;17.842;2024-03-23T04:07:48;99167.44;;;23.61;22.36
14293;BME280;62290;59.420;17.842;2024-03-23T04:10:14;99175.50;;;23.61;22.31
14293;BME280;62290;59.420;17.842;2024-03-23T04:12:43;99170.28;;;23.60;22.30
14293;BME280;62290;59.420;17.842;2024-03-23T04:15:10;99160.72;;;23.57;22.38
14293;BME280;62290;59.420;17.842;2024-03-23T04:17:37;99171.97;;;23.61;22.34
14293;BME280;62290;59.420;17.842;2024-03-23T04:20:04;99162.06;;;23.61;22.38
14293;BME280;62290;59.420;17.842;2024-03-23T04:22:35;99169.78;;;23.64;22.37
14293;BME280;62290;59.420;17.842;2024-03-23T04:25:03;99167.44;;;23.61;22.45
14293;BME280;62290;59.420;17.842;2024-03-23T04:27:32;99172.50;;;23.64;22.34
14293;BME280;62290;59.420;17.842;2024-03-23T04:29:58;99170.47;;;23.66;22.37
14293;BME280;62290;59.420;17.842;2024-03-23T04:32:26;99172.31;;;23.66;22.42
14293;BME280;62290;59.420;17.842;2024-03-23T04:34:53;99178.53;;;23.66;22.32
14293;BME280;62290;59.420;17.842;2024-03-23T04:37:20;99176.84;;;23.65;22.31
14293;BME280;62290;59.420;17.842;2024-03-23T04:39:47;99172.50;;;23.64;22.29
14293;BME280;62290;59.420;17.842;2024-03-23T04:42:16;99177.88;;;23.64;22.41
14293;BME280;62290;59.420;17.842;2024-03-23T04:44:43;99177.34;;;23.61;22.41
14293;BME280;62290;59.420;17.842;2024-03-23T04:47:10;99184.56;;;23.60;22.58
14293;BME280;62290;59.420;17.842;2024-03-23T04:49:38;99178.53;;;23.58;22.41
14293;BME280;62290;59.420;17.842;2024-03-23T04:52:05;99181.41;;;23.57;22.40
14293;BME280;62290;59.420;17.842;2024-03-23T04:54:32;99174.34;;;23.56;22.47
14293;BME280;62290;59.420;17.842;2024-03-23T04:56:59;99177.03;;;23.56;22.56
14293;BME280;62290;59.420;17.842;2024-03-23T04:59:28;99176.38;;;23.54;22.58
14293;BME280;62290;59.420;17.842;2024-03-23T05:01:53;99180.91;;;23.53;22.46
14293;BME280;62290;59.420;17.842;2024-03-23T05:04:20;99174.69;;;23.53;22.60
14293;BME280;62290;59.420;17.842;2024-03-23T05:06:48;99180.72;;;23.55;22.47
14293;BME280;62290;59.420;17.842;2024-03-23T05:09:15;99179.91;;;23.54;22.40
14293;BME280;62290;59.420;17.842;2024-03-23T05:11:42;99175.53;;;23.53;22.52
14293;BME280;62290;59.420;17.842;2024-03-23T05:14:12;99186.09;;;23.55;22.44
14293;BME280;62290;59.420;17.842;2024-03-23T05:16:40;99187.97;;;23.54;22.36
14293;BME280;62290;59.420;17.842;2024-03-23T05:19:07;99181.75;;;23.54;22.49
14293;BME280;62290;59.420;17.842;2024-03-23T05:21:33;99183.41;;;23.55;22.42
14293;BME280;62290;59.420;17.842;2024-03-23T05:24:00;99183.41;;;23.55;22.45
14293;BME280;62290;59.420;17.842;2024-03-23T05:26:26;99180.56;;;23.56;22.35
14293;BME280;62290;59.420;17.842;2024-03-23T05:28:53;99180.56;;;23.56;22.31
14293;BME280;62290;59.420;17.842;2024-03-23T05:31:23;99178.53;;;23.58;22.41
14293;BME280;62290;59.420;17.842;2024-03-23T05:33:51;99179.91;;;23.54;22.49
14293;BME280;62290;59.420;17.842;2024-03-23T05:36:18;99177.22;;;23.54;22.53
14293;BME280;62290;59.420;17.842;2024-03-23T05:38:45;99170.81;;;23.55;22.40
14293;BME280;62290;59.420;17.842;2024-03-23T05:41:11;99173.50;;;23.55;22.44
14293;BME280;62290;59.420;17.842;2024-03-23T05:43:38;99176.84;;;23.57;22.28
14293;BME280;62290;59.420;17.842;2024-03-23T05:46:04;99179.53;;;23.57;22.35
14293;BME280;62290;59.420;17.842;2024-03-23T05:48:32;99171.47;;;23.57;22.27
14293;BME280;62290;59.420;17.842;2024-03-23T05:50:59;99176.84;;;23.57;22.36
14293;BME280;62290;59.420;17.842;2024-03-23T05:53:26;99168.97;;;23.56;22.45
14293;BME280;62290;59.420;17.842;2024-03-23T05:56:00;99168.63;;;23.59;22.32
14293;BME280;62290;59.420;17.842;2024-03-23T05:58:29;99163.06;;;23.52;22.32
14293;BME280;62290;59.420;17.842;2024-03-23T06:00:57;99176.50;;;23.60;22.23
14293;BME280;62290;59.420;17.842;2024-03-23T06:03:24;99169.47;;;23.59;22.30
14293;BME280;62290;59.420;17.842;2024-03-23T06:05:51;99178.34;;;23.60;22.37
14293;BME280;62290;59.420;17.842;2024-03-23T06:08:20;99171.78;;;23.62;22.19
14293;BME280;62290;59.420;17.842;2024-03-23T06:10:46;99170.78;;;23.63;22.21
14293;BME280;62290;59.420;17.842;2024-03-23T06:13:14;99174.16;;;23.65;22.36
14293;BME280;62290;59.420;17.842;2024-03-23T06:15:43;99168.78;;;23.65;22.27
14293;BME280;62290;59.420;17.842;2024-03-23T06:18:11;99173.81;;;23.68;22.22
14293;BME280;62290;59.420;17.842;2024-03-23T06:20:38;99176.50;;;23.68;22.31
14293;BME280;62290;59.420;17.842;2024-03-23T06:23:04;99189.78;;;23.70;22.39
14293;BME280;62290;59.420;17.842;2024-03-23T06:25:32;99182.53;;;23.70;22.25
14293;BME280;62290;59.420;17.842;2024-03-23T06:27:59;99192.31;;;23.71;22.46
14293;BME280;62290;59.420;17.842;2024-03-23T06:30:27;99195.00;;;23.71;22.36
14293;BME280;62290;59.420;17.842;2024-03-23T06:32:53;99185.91;;;23.72;22.01
14293;BME280;62290;59.420;17.842;2024-03-23T06:35:20;99193.16;;;23.72;22.35
14293;BME280;62290;59.420;17.842;2024-03-23T06:37:46;99170.78;;;23.63;22.26
14293;BME280;62290;59.420;17.842;2024-03-23T06:40:13;99198.66;;;23.78;22.32
14293;BME280;62290;59.420;17.842;2024-03-23T06:42:40;99192.28;;;23.79;22.26
14293;BME280;62290;59.420;17.842;2024-03-23T06:45:08;99191.44;;;23.79;22.28
14293;BME280;62290;59.420;17.842;2024-03-23T06:47:34;99194.97;;;23.79;22.32
14293;BME280;62290;59.420;17.842;2024-03-23T06:50:02;99197.81;;;23.78;22.31
14293;BME280;62290;59.420;17.842;2024-03-23T06:52:28;99201.00;;;23.81;22.35
14293;BME280;62290;59.420;17.842;2024-03-23T06:54:55;99191.63;;;23.77;22.37
14293;BME280;62290;59.420;17.842;2024-03-23T06:57:21;99178.53;;;23.66;22.60
14293;BME280;62290;59.420;17.842;2024-03-23T06:59:50;99200.34;;;23.79;22.46
14293;BME280;62290;59.420;17.842;2024-03-23T07:02:16;99202.88;;;23.81;22.32
14293;BME280;62290;59.420;17.842;2024-03-23T07:04:43;99214.47;;;23.81;22.43
14293;BME280;62290;59.420;17.842;2024-03-23T07:07:09;99204.03;;;23.78;22.25
14293;BME280;62290;59.420;17.842;2024-03-23T07:09:36;99213.47;;;23.82;22.38
14293;BME280;62290;59.420;17.842;2024-03-23T07:12:03;99207.59;;;23.79;22.45
14293;BME280;62290;59.420;17.842;2024-03-23T07:14:31;99219.19;;;23.79;22.34
14293;BME280;62290;59.420;17.842;2024-03-23T07:16:58;99208.44;;;23.79;22.52
14293;BME280;62290;59.420;17.842;2024-03-23T07:19:25;99204.22;;;23.77;22.55
14293;BME280;62290;59.420;17.842;2024-03-23T07:21:51;99205.06;;;23.77;22.47
14293;BME280;62290;59.420;17.842;2024-03-23T07:24:18;99201.69;;;23.75;22.60
14293;BME280;62290;59.420;17.842;2024-03-23T07:26:44;99199.19;;;23.74;22.53
14293;BME280;62290;59.420;17.842;2024-03-23T07:29:12;99201.22;;;23.72;22.70
14293;BME280;62290;59.420;17.842;2024-03-23T07:31:38;99201.22;;;23.72;22.71
14293;BME280;62290;59.420;17.842;2024-03-23T07:34:06;99205.75;;;23.71;22.77
14293;BME280;62290;59.420;17.842;2024-03-23T07:36:32;99201.38;;;23.70;22.72
14293;BME280;62290;59.420;17.842;2024-03-23T07:38:59;99203.72;;;23.73;22.66
14293;BME280;62290;59.420;17.842;2024-03-23T07:41:25;99195.84;;;23.72;22.66
14293;BME280;62290;59.420;17.842;2024-03-23T07:43:53;99200.38;;;23.71;22.77
14293;BME280;62290;59.420;17.842;2024-03-23T07:46:20;99203.25;;;23.70;22.59
14293;BME280;62290;59.420;17.842;2024-03-23T07:48:48;99202.41;;;23.69;22.75
14293;BME280;62290;59.420;17.842;2024-03-23T07:51:20;99204.38;;;23.67;22.75
14293;BME280;62290;59.420;17.842;2024-03-23T07:53:47;99208.44;;;23.63;22.77
14293;BME280;62290;59.420;17.842;2024-03-23T07:56:15;99198.03;;;23.60;22.99
14293;BME280;62290;59.420;17.842;2024-03-23T07:58:44;99200.91;;;23.59;22.90
14293;BME280;62290;59.420;17.842;2024-03-23T08:01:11;99201.03;;;23.57;22.93
14293;BME280;62290;59.420;17.842;2024-03-23T08:03:41;99191.66;;;23.53;22.79
14293;BME280;62290;59.420;17.842;2024-03-23T08:06:08;99192.97;;;23.49;22.97
14293;BME280;62290;59.420;17.842;2024-03-23T08:08:37;99192.16;;;23.49;23.07
14293;BME280;62290;59.420;17.842;2024-03-23T08:11:03;99191.66;;;23.45;22.84
14293;BME280;62290;59.420;17.842;2024-03-23T08:13:31;99188.97;;;23.45;23.17
14293;BME280;62290;59.420;17.842;2024-03-23T08:16:03;99193.50;;;23.45;23.06
14293;BME280;62290;59.420;17.842;2024-03-23T08:18:31;99193.84;;;23.42;23.16
14293;BME280;62290;59.420;17.842;2024-03-23T08:20:57;99180.56;;;23.40;23.00
14293;BME280;62290;59.420;17.842;2024-03-23T08:23:27;99184.09;;;23.41;23.24
14293;BME280;62290;59.420;17.842;2024-03-23T08:25:59;99187.78;;;23.40;23.26
14293;BME280;62290;59.420;17.842;2024-03-23T08:28:27;99169.13;;;23.30;23.33
14293;BME280;62290;59.420;17.842;2024-03-23T08:30:54;99181.06;;;23.35;23.22
14293;BME280;62290;59.420;17.842;2024-03-23T08:33:21;99180.34;;;23.33;23.34
14293;BME280;62290;59.420;17.842;2024-03-23T08:35:53;99190.28;;;23.33;23.25
14293;BME280;62290;59.420;17.842;2024-03-23T08:38:21;99188.94;;;23.29;23.26
14293;BME280;62290;59.420;17.842;2024-03-23T08:40:47;99188.09;;;23.28;23.29
14293;BME280;62290;59.420;17.842;2024-03-23T08:43:16;99148.28;;;23.08;23.44
14293;BME280;62290;59.420;17.842;2024-03-23T08:45:42;99184.91;;;23.25;23.39
14293;BME280;62290;59.420;17.842;2024-03-23T08:48:09;99187.59;;;23.25;23.34
14293;BME280;62290;59.420;17.842;2024-03-23T08:50:35;99182.22;;;23.25;23.41
14293;BME280;62290;59.420;17.842;2024-03-23T08:53:02;99185.91;;;23.24;23.39
14293;BME280;62290;59.420;17.842;2024-03-23T08:55:28;99189.97;;;23.20;23.43
14293;BME280;62290;59.420;17.842;2024-03-23T08:57:55;99181.06;;;23.19;23.34
14293;BME280;62290;59.420;17.842;2024-03-23T09:00:23;99189.97;;;23.20;23.42
14293;BME280;62290;59.420;17.842;2024-03-23T09:02:50;99190.94;;;23.19;23.54
14293;BME280;62290;59.420;17.842;2024-03-23T09:05:16;99193.81;;;23.17;23.41
14293;BME280;62290;59.420;17.842;2024-03-23T09:07:43;99191.94;;;23.18;23.46
14293;BME280;62290;59.420;17.842;2024-03-23T09:10:09;99187.75;;;23.15;23.60
14293;BME280;62290;59.420;17.842;2024-03-23T09:12:36;99188.59;;;23.16;23.50
14293;BME280;62290;59.420;17.842;2024-03-23T09:15:02;99186.09;;;23.14;23.45
14293;BME280;62290;59.420;17.842;2024-03-23T09:17:30;99185.25;;;23.14;23.55
14293;BME280;62290;59.420;17.842;2024-03-23T09:19:56;99188.13;;;23.12;23.52
14293;BME280;62290;59.420;17.842;2024-03-23T09:22:23;99188.94;;;23.13;23.54
14293;BME280;62290;59.420;17.842;2024-03-23T09:24:49;99188.13;;;23.12;23.57
14293;BME280;62290;59.420;17.842;2024-03-23T09:27:16;99182.75;;;23.12;23.50
14293;BME280;62290;59.420;17.842;2024-03-23T09:29:42;99187.25;;;23.12;23.61
14293;BME280;62290;59.420;17.842;2024-03-23T09:32:09;99186.41;;;23.11;23.59
14293;BME280;62290;59.420;17.842;2024-03-23T09:34:36;99186.75;;;23.08;23.57
14293;BME280;62290;59.420;17.842;2024-03-23T09:37:04;99189.94;;;23.12;23.57
14293;BME280;62290;59.420;17.842;2024-03-23T09:39:30;99189.09;;;23.11;23.66
14293;BME280;62290;59.420;17.842;2024-03-23T09:41:58;99193.63;;;23.11;23.52
14293;BME280;62290;59.420;17.842;2024-03-23T09:44:24;99189.44;;;23.08;23.52
14293;BME280;62290;59.420;17.842;2024-03-23T09:46:55;99193.97;;;23.08;23.72
14293;BME280;62290;59.420;17.842;2024-03-23T09:49:21;99190.28;;;23.09;23.64
14293;BME280;62290;59.420;17.842;2024-03-23T09:51:50;99174.31;;;23.07;23.67
14293;BME280;62290;59.420;17.842;2024-03-23T09:54:16;99190.28;;;23.09;23.74
14293;BME280;62290;59.420;17.842;2024-03-23T09:56:43;99186.75;;;23.08;23.63
14293;BME280;62290;59.420;17.842;2024-03-23T09:59:09;99187.59;;;23.09;23.63
14293;BME280;62290;59.420;17.842;2024-03-23T10:01:36;99190.28;;;23.09;23.72
14293;BME280;62290;59.420;17.842;2024-03-23T10:04:03;99188.44;;;23.09;23.64
14293;BME280;62290;59.420;17.842;2024-03-23T10:06:30;99183.06;;;23.09;23.67
14293;BME280;62290;59.420;17.842;2024-03-23T10:08:58;99183.53;;;23.05;23.78
14293;BME280;62290;59.420;17.842;2024-03-23T10:11:25;99189.25;;;22.94;24.20
14293;BME280;62290;59.420;17.842;2024-03-23T10:13:52;99153.44;;;22.69;24.64
14293;BME280;62290;59.420;17.842;2024-03-23T10:16:23;99184.00;;;22.76;25.04
14293;BME280;62290;59.420;17.842;2024-03-23T10:18:49;99173.75;;;22.71;25.65
14293;BME280;62290;59.420;17.842;2024-03-23T10:21:16;99150.38;;;22.56;26.39
14293;BME280;62290;59.420;17.842;2024-03-23T10:23:44;99177.13;;;22.73;27.14
14293;BME280;62290;59.420;17.842;2024-03-23T10:26:21;99171.94;;;22.80;27.37
14293;BME280;62290;59.420;17.842;2024-03-23T10:28:54;99173.97;;;22.86;27.67
14293;BME280;62290;59.420;17.842;2024-03-23T10:31:23;99171.78;;;22.90;27.87
14293;BME280;62290;59.420;17.842;2024-03-23T10:33:49;99169.44;;;22.95;27.88
14293;BME280;62290;59.420;17.842;2024-03-23T10:36:19;99169.94;;;22.98;27.79
14293;BME280;62290;59.420;17.842;2024-03-23T10:38:46;99172.31;;;23.01;27.94
14293;BME280;62290;59.420;17.842;2024-03-23T10:41:14;99171.81;;;23.06;28.31
14293;BME280;62290;59.420;17.842;2024-03-23T10:43:42;99163.22;;;23.10;29.28
14293;BME280;62290;59.420;17.842;2024-03-23T10:46:10;99164.59;;;23.14;30.39
14293;BME280;62290;59.420;17.842;2024-03-23T10:48:36;99165.59;;;23.21;31.87
14293;BME280;62290;59.420;17.842;2024-03-23T10:51:04;99160.56;;;23.26;32.85
14293;BME280;62290;59.420;17.842;2024-03-23T10:53:33;99154.84;;;23.29;33.42
14293;BME280;62290;59.420;17.842;2024-03-23T10:56:00;99171.00;;;23.38;33.79
14293;BME280;62290;59.420;17.842;2024-03-23T10:58:30;99164.97;;;23.44;34.30
14293;BME280;62290;59.420;17.842;2024-03-23T11:00:59;99164.78;;;23.45;34.65
14293;BME280;62290;59.420;17.842;2024-03-23T11:03:32;99168.63;;;23.51;34.69
14293;BME280;62290;59.420;17.842;2024-03-23T11:06:00;99159.72;;;23.50;33.78
14293;BME280;62290;59.420;17.842;2024-03-23T11:08:34;99168.13;;;23.55;33.28
14293;BME280;62290;59.420;17.842;2024-03-23T11:11:15;99163.41;;;23.57;32.63
14293;BME280;62290;59.420;17.842;2024-03-23T11:13:42;99162.75;;;23.55;32.22
14293;BME280;62290;59.420;17.842;2024-03-23T11:16:15;99165.75;;;23.60;31.44
14293;BME280;62290;59.420;17.842;2024-03-23T11:18:44;99162.91;;;23.62;30.93
14293;BME280;62290;59.420;17.842;2024-03-23T11:21:11;99164.22;;;23.66;30.36
14293;BME280;62290;59.420;17.842;2024-03-23T11:24:12;99162.72;;;23.71;29.85
14293;BME280;62290;59.420;17.842;2024-03-23T11:26:40;99157.34;;;23.71;29.51
14293;BME280;62290;59.420;17.842;2024-03-23T11:29:09;99161.19;;;23.77;28.99
14293;BME280;62290;59.420;17.842;2024-03-23T11:31:38;99157.66;;;23.76;28.89
14293;BME280;62290;59.420;17.842;2024-03-23T11:34:05;99157.66;;;23.76;28.91
14293;BME280;62290;59.420;17.842;2024-03-23T11:36:32;99148.09;;;23.74;29.07
14293;BME280;62290;59.420;17.842;2024-03-23T11:38:58;99144.22;;;23.76;28.71
14293;BME280;62290;59.420;17.842;2024-03-23T11:41:25;99157.31;;;23.79;28.76
14293;BME280;62290;59.420;17.842;2024-03-23T11:43:51;99157.31;;;23.79;28.82
14293;BME280;62290;59.420;17.842;2024-03-23T11:46:22;99158.31;;;23.78;28.82
14293;BME280;62290;59.420;17.842;2024-03-23T11:48:51;99160.00;;;23.79;28.71
14293;BME280;62290;59.420;17.842;2024-03-23T11:51:18;99162.69;;;23.79;28.61
14293;BME280;62290;59.420;17.842;2024-03-23T11:53:44;99159.34;;;23.77;28.32
14293;BME280;62290;59.420;17.842;2024-03-23T11:56:11;99160.84;;;23.80;28.28
14293;BME280;62290;59.420;17.842;2024-03-23T11:58:37;99152.81;;;23.72;28.25
14293;BME280;62290;59.420;17.842;2024-03-23T12:01:04;99148.94;;;23.74;27.86
14293;BME280;62290;59.420;17.842;2024-03-23T12:03:31;99151.44;;;23.76;27.63
14293;BME280;62290;59.420;17.842;2024-03-23T12:06:02;99158.81;;;23.82;27.55
14293;BME280;62290;59.420;17.842;2024-03-23T12:08:29;99159.66;;;23.82;27.34
14293;BME280;62290;59.420;17.842;2024-03-23T12:11:05;99162.03;;;23.85;27.19
14293;BME280;62290;59.420;17.842;2024-03-23T12:13:34;99134.97;;;23.71;26.86
14293;BME280;62290;59.420;17.842;2024-03-23T12:16:10;99161.84;;;23.87;26.87
14293;BME280;62290;59.420;17.842;2024-03-23T12:18:40;99132.13;;;23.72;26.56
14293;BME280;62290;59.420;17.842;2024-03-23T12:21:08;99163.34;;;23.89;26.70
14293;BME280;62290;59.420;17.842;2024-03-23T12:23:35;99156.28;;;23.88;26.46
14293;BME280;62290;59.420;17.842;2024-03-23T12:26:02;99154.41;;;23.89;26.51
14293;BME280;62290;59.420;17.842;2024-03-23T12:28:28;99149.88;;;23.89;26.33
14293;BME280;62290;59.420;17.842;2024-03-23T12:30:55;99143.50;;;23.90;25.92
14293;BME280;62290;59.420;17.842;2024-03-23T12:33:21;99155.94;;;23.91;25.73
14293;BME280;62290;59.420;17.842;2024-03-23T12:35:48;99143.31;;;23.92;25.63
14293;BME280;62290;59.420;17.842;2024-03-23T12:38:16;99133.41;;;23.92;25.58
14293;BME280;62290;59.420;17.842;2024-03-23T12:40:46;99114.94;;;23.81;25.67
14293;BME280;62290;59.420;17.842;2024-03-23T12:43:13;99138.94;;;23.91;25.54
14293;BME280;62290;59.420;17.842;2024-03-23T12:45:40;99131.91;;;23.90;25.64
14293;BME280;62290;59.420;17.842;2024-03-23T12:48:07;99122.13;;;23.89;25.38
14293;BME280;62290;59.420;17.842;2024-03-23T12:50:34;99127.53;;;23.89;25.41
14293;BME280;62290;59.420;17.842;2024-03-23T12:53:00;99126.00;;;23.86;25.51
14293;BME280;62290;59.420;17.842;2024-03-23T12:55:28;99123.66;;;23.83;25.35
14293;BME280;62290;59.420;17.842;2024-03-23T12:57:54;99106.56;;;23.76;25.36
14293;BME280;62290;59.420;17.842;2024-03-23T13:00:22;99115.13;;;23.80;25.29
14293;BME280;62290;59.420;17.842;2024-03-23T13:02:48;99117.97;;;23.78;25.05
14293;BME280;62290;59.420;17.842;2024-03-23T13:05:15;99069.16;;;23.51;24.88
14293;BME280;62290;59.420;17.842;2024-03-23T13:07:41;99112.28;;;23.73;24.76
14293;BME280;62290;59.420;17.842;2024-03-23T13:10:08;99113.97;;;23.74;24.77
14293;BME280;62290;59.420;17.842;2024-03-23T13:12:35;99113.97;;;23.74;24.50
14293;BME280;62290;59.420;17.842;2024-03-23T13:15:03;99117.66;;;23.73;24.40
14293;BME280;62290;59.420;17.842;2024-03-23T13:17:29;99119.69;;;23.71;24.43
14293;BME280;62290;59.420;17.842;2024-03-23T13:19:56;99098.38;;;23.62;24.20
14293;BME280;62290;59.420;17.842;2024-03-23T13:22:22;99119.69;;;23.71;24.24
14293;BME280;62290;59.420;17.842;2024-03-23T13:24:49;99116.47;;;23.68;24.54
14293;BME280;62290;59.420;17.842;2024-03-23T13:27:16;99124.09;;;23.64;24.43
14293;BME280;62290;59.420;17.842;2024-03-23T13:29:45;99109.94;;;23.62;24.47
14293;BME280;62290;59.420;17.842;2024-03-23T13:32:12;99112.81;;;23.61;24.92
14293;BME280;62290;59.420;17.842;2024-03-23T13:34:39;99115.50;;;23.61;25.40
14293;BME280;62290;59.420;17.842;2024-03-23T13:37:05;99120.03;;;23.60;25.47
14293;BME280;62290;59.420;17.842;2024-03-23T13:39:33;99120.69;;;23.62;25.62
14293;BME280;62290;59.420;17.842;2024-03-23T13:41:59;99128.94;;;23.61;25.77
14293;BME280;62290;59.420;17.842;2024-03-23T13:44:25;99124.75;;;23.58;25.85